sensor_id;sensor_type;location;lat;lon;timestamp;temperature;humidity
78438;SHT31;67736;51.978;5.656;2023-12-20T00:01:47;9.2;73.9
78438;SHT31;67736;51.978;5.656;2023-12-20T00:04:17;9.2;74.1
78438;SHT31;67736;51.978;5.656;2023-12-20T00:06:46;9.1;74.3
78438;SHT31;67736;51.978;5.656;2023-12-20T00:09:16;9.1;74.4
78438;SHT31;67736;51.978;5.656;2023-12-20T00:11:45;9.1;74.5
78438;SHT31;67736;51.978;5.656;2023-12-20T00:14:15;9.1;74.6
78438;SHT31;67736;51.978;5.656;2023-12-20T00:16:44;9.1;74.5
78438;SHT31;67736;51.978;5.656;2023-12-20T00:19:14;9.0;74.5
78438;SHT31;67736;51.978;5.656;2023-12-20T00:21:43;9.0;74.5
78438;SHT31;67736;51.978;5.656;2023-12-20T00:24:13;9.0;74.5
78438;SHT31;67736;51.978;5.656;2023-12-20T00:26:43;9.0;74.4
78438;SHT31;67736;51.978;5.656;2023-12-20T00:29:14;9.0;74.3
78438;SHT31;67736;51.978;5.656;2023-12-20T00:31:43;9.0;74.2
78438;SHT31;67736;51.978;5.656;2023-12-20T00:34:13;9.0;74.0
78438;SHT31;67736;51.978;5.656;2023-12-20T00:36:42;9.0;74.0
78438;SHT31;67736;51.978;5.656;2023-12-20T00:39:12;9.0;73.8
78438;SHT31;67736;51.978;5.656;2023-12-20T00:41:42;9.0;73.7
78438;SHT31;67736;51.978;5.656;2023-12-20T00:44:11;9.0;73.3
78438;SHT31;67736;51.978;5.656;2023-12-20T00:46:41;9.0;73.3
78438;SHT31;67736;51.978;5.656;2023-12-20T00:49:10;9.0;73.1
78438;SHT31;67736;51.978;5.656;2023-12-20T00:51:40;9.0;72.8
78438;SHT31;67736;51.978;5.656;2023-12-20T00:54:09;9.0;72.6
78438;SHT31;67736;51.978;5.656;2023-12-20T00:56:39;9.0;72.5
78438;SHT31;67736;51.978;5.656;2023-12-20T00:59:08;9.0;72.4
78438;SHT31;67736;51.978;5.656;2023-12-20T01:01:38;8.9;72.3
78438;SHT31;67736;51.978;5.656;2023-12-20T01:04:08;8.9;72.2
78438;SHT31;67736;51.978;5.656;2023-12-20T01:06:37;8.9;72.2
78438;SHT31;67736;51.978;5.656;2023-12-20T01:09:07;8.9;72.2
78438;SHT31;67736;51.978;5.656;2023-12-20T01:11:36;8.9;72.1
78438;SHT31;67736;51.978;5.656;2023-12-20T01:14:06;8.9;72.0
78438;SHT31;67736;51.978;5.656;2023-12-20T01:16:35;8.9;72.1
78438;SHT31;67736;51.978;5.656;2023-12-20T01:19:05;8.8;72.2
78438;SHT31;67736;51.978;5.656;2023-12-20T01:21:34;8.8;72.1
78438;SHT31;67736;51.978;5.656;2023-12-20T01:24:03;8.8;72.2
78438;SHT31;67736;51.978;5.656;2023-12-20T01:26:33;8.8;72.2
78438;SHT31;67736;51.978;5.656;2023-12-20T01:29:03;8.8;72.1
78438;SHT31;67736;51.978;5.656;2023-12-20T01:31:32;8.7;72.1
78438;SHT31;67736;51.978;5.656;2023-12-20T01:34:02;8.7;72.0
78438;SHT31;67736;51.978;5.656;2023-12-20T01:36:31;8.7;72.1
78438;SHT31;67736;51.978;5.656;2023-12-20T01:39:01;8.7;72.1
78438;SHT31;67736;51.978;5.656;2023-12-20T01:41:31;8.7;72.0
78438;SHT31;67736;51.978;5.656;2023-12-20T01:44:01;8.7;72.3
78438;SHT31;67736;51.978;5.656;2023-12-20T01:46:31;8.6;72.4
78438;SHT31;67736;51.978;5.656;2023-12-20T01:49:01;8.6;72.5
78438;SHT31;67736;51.978;5.656;2023-12-20T01:51:31;8.6;72.4
78438;SHT31;67736;51.978;5.656;2023-12-20T01:54:03;8.6;72.6
78438;SHT31;67736;51.978;5.656;2023-12-20T01:56:33;8.6;72.6
78438;SHT31;67736;51.978;5.656;2023-12-20T01:59:03;8.6;72.6
78438;SHT31;67736;51.978;5.656;2023-12-20T02:01:33;8.6;72.7
78438;SHT31;67736;51.978;5.656;2023-12-20T02:04:04;8.5;72.8
78438;SHT31;67736;51.978;5.656;2023-12-20T02:06:35;8.5;73.1
78438;SHT31;67736;51.978;5.656;2023-12-20T02:09:07;8.5;73.4
78438;SHT31;67736;51.978;5.656;2023-12-20T02:11:36;8.5;73.5
78438;SHT31;67736;51.978;5.656;2023-12-20T02:14:09;8.5;73.7
78438;SHT31;67736;51.978;5.656;2023-12-20T02:16:39;8.5;73.7
78438;SHT31;67736;51.978;5.656;2023-12-20T02:19:13;8.6;73.6
78438;SHT31;67736;51.978;5.656;2023-12-20T02:21:43;8.6;73.7
78438;SHT31;67736;51.978;5.656;2023-12-20T02:24:13;8.6;73.6
78438;SHT31;67736;51.978;5.656;2023-12-20T02:26:43;8.6;73.5
78438;SHT31;67736;51.978;5.656;2023-12-20T02:29:13;8.6;73.6
78438;SHT31;67736;51.978;5.656;2023-12-20T02:31:42;8.6;73.6
78438;SHT31;67736;51.978;5.656;2023-12-20T02:34:12;8.6;73.5
78438;SHT31;67736;51.978;5.656;2023-12-20T02:36:41;8.7;73.6
78438;SHT31;67736;51.978;5.656;2023-12-20T02:39:11;8.7;73.4
78438;SHT31;67736;51.978;5.656;2023-12-20T02:41:40;8.7;73.4
78438;SHT31;67736;51.978;5.656;2023-12-20T02:44:10;8.7;73.4
78438;SHT31;67736;51.978;5.656;2023-12-20T02:46:40;8.7;73.3
78438;SHT31;67736;51.978;5.656;2023-12-20T02:49:09;8.7;73.3
78438;SHT31;67736;51.978;5.656;2023-12-20T02:51:39;8.7;73.4
78438;SHT31;67736;51.978;5.656;2023-12-20T02:54:08;8.8;73.5
78438;SHT31;67736;51.978;5.656;2023-12-20T02:56:39;8.8;73.5
78438;SHT31;67736;51.978;5.656;2023-12-20T02:59:09;8.8;73.1
78438;SHT31;67736;51.978;5.656;2023-12-20T03:01:44;8.8;72.8
78438;SHT31;67736;51.978;5.656;2023-12-20T03:04:13;8.8;72.6
78438;SHT31;67736;51.978;5.656;2023-12-20T03:06:43;8.8;72.6
78438;SHT31;67736;51.978;5.656;2023-12-20T03:09:12;8.8;72.3
78438;SHT31;67736;51.978;5.656;2023-12-20T03:11:42;8.8;72.5
78438;SHT31;67736;51.978;5.656;2023-12-20T03:14:11;8.8;72.3
78438;SHT31;67736;51.978;5.656;2023-12-20T03:16:41;8.8;72.3
78438;SHT31;67736;51.978;5.656;2023-12-20T03:19:11;8.8;72.7
78438;SHT31;67736;51.978;5.656;2023-12-20T03:21:40;8.8;72.7
78438;SHT31;67736;51.978;5.656;2023-12-20T03:24:10;8.8;72.8
78438;SHT31;67736;51.978;5.656;2023-12-20T03:26:39;8.8;72.9
78438;SHT31;67736;51.978;5.656;2023-12-20T03:29:09;8.8;72.8
78438;SHT31;67736;51.978;5.656;2023-12-20T03:31:38;8.8;72.9
78438;SHT31;67736;51.978;5.656;2023-12-20T03:34:08;8.8;73.0
78438;SHT31;67736;51.978;5.656;2023-12-20T03:36:38;8.8;73.0
78438;SHT31;67736;51.978;5.656;2023-12-20T03:39:07;8.8;72.9
78438;SHT31;67736;51.978;5.656;2023-12-20T03:41:37;8.8;72.9
78438;SHT31;67736;51.978;5.656;2023-12-20T03:44:07;8.8;72.9
78438;SHT31;67736;51.978;5.656;2023-12-20T03:46:36;8.8;73.1
78438;SHT31;67736;51.978;5.656;2023-12-20T03:49:06;8.8;73.0
78438;SHT31;67736;51.978;5.656;2023-12-20T03:51:35;8.8;73.0
78438;SHT31;67736;51.978;5.656;2023-12-20T03:54:07;8.8;73.1
78438;SHT31;67736;51.978;5.656;2023-12-20T03:56:36;8.8;73.2
78438;SHT31;67736;51.978;5.656;2023-12-20T03:59:06;8.8;73.3
78438;SHT31;67736;51.978;5.656;2023-12-20T04:01:36;8.8;73.2
78438;SHT31;67736;51.978;5.656;2023-12-20T04:04:08;8.8;73.0
78438;SHT31;67736;51.978;5.656;2023-12-20T04:06:37;8.8;72.9
78438;SHT31;67736;51.978;5.656;2023-12-20T04:09:07;8.9;72.8
78438;SHT31;67736;51.978;5.656;2023-12-20T04:11:38;8.9;72.6
78438;SHT31;67736;51.978;5.656;2023-12-20T04:14:07;8.9;72.8
78438;SHT31;67736;51.978;5.656;2023-12-20T04:16:37;8.9;72.9
78438;SHT31;67736;51.978;5.656;2023-12-20T04:19:09;8.9;72.8
78438;SHT31;67736;51.978;5.656;2023-12-20T04:21:38;8.9;72.9
78438;SHT31;67736;51.978;5.656;2023-12-20T04:24:09;8.9;72.8
78438;SHT31;67736;51.978;5.656;2023-12-20T04:26:39;8.9;72.9
78438;SHT31;67736;51.978;5.656;2023-12-20T04:29:08;8.9;72.8
78438;SHT31;67736;51.978;5.656;2023-12-20T04:31:38;8.9;73.1
78438;SHT31;67736;51.978;5.656;2023-12-20T04:34:07;9.0;73.1
78438;SHT31;67736;51.978;5.656;2023-12-20T04:36:37;9.0;72.9
78438;SHT31;67736;51.978;5.656;2023-12-20T04:39:07;9.0;72.9
78438;SHT31;67736;51.978;5.656;2023-12-20T04:41:36;9.0;73.1
78438;SHT31;67736;51.978;5.656;2023-12-20T04:44:06;9.0;72.9
78438;SHT31;67736;51.978;5.656;2023-12-20T04:46:36;9.0;73.2
78438;SHT31;67736;51.978;5.656;2023-12-20T04:49:06;9.0;73.3
78438;SHT31;67736;51.978;5.656;2023-12-20T04:51:35;9.0;73.3
78438;SHT31;67736;51.978;5.656;2023-12-20T04:54:05;9.0;73.3
78438;SHT31;67736;51.978;5.656;2023-12-20T04:56:35;9.1;73.3
78438;SHT31;67736;51.978;5.656;2023-12-20T04:59:04;9.1;73.0
78438;SHT31;67736;51.978;5.656;2023-12-20T05:01:34;9.1;73.3
78438;SHT31;67736;51.978;5.656;2023-12-20T05:04:04;9.1;72.8
78438;SHT31;67736;51.978;5.656;2023-12-20T05:06:33;9.1;72.4
78438;SHT31;67736;51.978;5.656;2023-12-20T05:09:03;9.1;72.3
78438;SHT31;67736;51.978;5.656;2023-12-20T05:11:32;9.1;72.1
78438;SHT31;67736;51.978;5.656;2023-12-20T05:14:02;9.2;72.4
78438;SHT31;67736;51.978;5.656;2023-12-20T05:16:32;9.2;72.4
78438;SHT31;67736;51.978;5.656;2023-12-20T05:19:01;9.2;72.0
78438;SHT31;67736;51.978;5.656;2023-12-20T05:21:34;9.2;71.9
78438;SHT31;67736;51.978;5.656;2023-12-20T05:24:03;9.2;72.0
78438;SHT31;67736;51.978;5.656;2023-12-20T05:26:33;9.2;71.8
78438;SHT31;67736;51.978;5.656;2023-12-20T05:29:02;9.3;71.7
78438;SHT31;67736;51.978;5.656;2023-12-20T05:31:32;9.3;71.7
78438;SHT31;67736;51.978;5.656;2023-12-20T05:34:02;9.3;71.5
78438;SHT31;67736;51.978;5.656;2023-12-20T05:36:31;9.3;71.5
78438;SHT31;67736;51.978;5.656;2023-12-20T05:39:01;9.4;71.4
78438;SHT31;67736;51.978;5.656;2023-12-20T05:41:31;9.4;71.2
78438;SHT31;67736;51.978;5.656;2023-12-20T05:44:00;9.4;71.2
78438;SHT31;67736;51.978;5.656;2023-12-20T05:46:30;9.4;71.2
78438;SHT31;67736;51.978;5.656;2023-12-20T05:49:00;9.4;71.2
78438;SHT31;67736;51.978;5.656;2023-12-20T05:51:30;9.4;71.2
78438;SHT31;67736;51.978;5.656;2023-12-20T05:53:59;9.4;71.5
78438;SHT31;67736;51.978;5.656;2023-12-20T05:56:29;9.4;70.8
78438;SHT31;67736;51.978;5.656;2023-12-20T05:58:59;9.5;71.0
78438;SHT31;67736;51.978;5.656;2023-12-20T06:01:30;9.5;71.2
78438;SHT31;67736;51.978;5.656;2023-12-20T06:04:00;9.5;71.1
78438;SHT31;67736;51.978;5.656;2023-12-20T06:06:30;9.5;70.9
78438;SHT31;67736;51.978;5.656;2023-12-20T06:09:00;9.5;71.0
78438;SHT31;67736;51.978;5.656;2023-12-20T06:11:30;9.5;71.2
78438;SHT31;67736;51.978;5.656;2023-12-20T06:13:59;9.5;71.2
78438;SHT31;67736;51.978;5.656;2023-12-20T06:16:29;9.5;70.9
78438;SHT31;67736;51.978;5.656;2023-12-20T06:18:59;9.5;70.9
78438;SHT31;67736;51.978;5.656;2023-12-20T06:21:28;9.5;71.3
78438;SHT31;67736;51.978;5.656;2023-12-20T06:23:59;9.5;70.6
78438;SHT31;67736;51.978;5.656;2023-12-20T06:26:29;9.5;70.4
78438;SHT31;67736;51.978;5.656;2023-12-20T06:29:00;9.5;70.6
78438;SHT31;67736;51.978;5.656;2023-12-20T06:31:30;9.5;70.3
78438;SHT31;67736;51.978;5.656;2023-12-20T06:34:00;9.5;70.5
78438;SHT31;67736;51.978;5.656;2023-12-20T06:36:30;9.5;70.6
78438;SHT31;67736;51.978;5.656;2023-12-20T06:39:00;9.5;70.3
78438;SHT31;67736;51.978;5.656;2023-12-20T06:41:31;9.5;70.1
78438;SHT31;67736;51.978;5.656;2023-12-20T06:44:01;9.6;70.1
78438;SHT31;67736;51.978;5.656;2023-12-20T06:46:31;9.6;69.9
78438;SHT31;67736;51.978;5.656;2023-12-20T06:49:01;9.6;70.2
78438;SHT31;67736;51.978;5.656;2023-12-20T06:51:30;9.6;70.3
78438;SHT31;67736;51.978;5.656;2023-12-20T06:54:00;9.6;70.2
78438;SHT31;67736;51.978;5.656;2023-12-20T06:56:30;9.6;70.2
78438;SHT31;67736;51.978;5.656;2023-12-20T06:58:59;9.6;70.1
78438;SHT31;67736;51.978;5.656;2023-12-20T07:01:30;9.6;70.2
78438;SHT31;67736;51.978;5.656;2023-12-20T07:04:00;9.6;70.0
78438;SHT31;67736;51.978;5.656;2023-12-20T07:06:29;9.6;69.9
78438;SHT31;67736;51.978;5.656;2023-12-20T07:08:59;9.6;69.9
78438;SHT31;67736;51.978;5.656;2023-12-20T07:11:28;9.6;70.5
78438;SHT31;67736;51.978;5.656;2023-12-20T07:13:58;9.6;70.3
78438;SHT31;67736;51.978;5.656;2023-12-20T07:16:29;9.6;70.4
78438;SHT31;67736;51.978;5.656;2023-12-20T07:18:59;9.6;70.4
78438;SHT31;67736;51.978;5.656;2023-12-20T07:21:29;9.6;70.2
78438;SHT31;67736;51.978;5.656;2023-12-20T07:23:58;9.6;70.5
78438;SHT31;67736;51.978;5.656;2023-12-20T07:26:27;9.6;70.0
78438;SHT31;67736;51.978;5.656;2023-12-20T07:28:57;9.6;70.3
78438;SHT31;67736;51.978;5.656;2023-12-20T07:31:28;9.6;70.3
78438;SHT31;67736;51.978;5.656;2023-12-20T07:33:58;9.6;70.4
78438;SHT31;67736;51.978;5.656;2023-12-20T07:36:28;9.6;70.6
78438;SHT31;67736;51.978;5.656;2023-12-20T07:38:57;9.6;70.5
78438;SHT31;67736;51.978;5.656;2023-12-20T07:41:27;9.6;70.6
78438;SHT31;67736;51.978;5.656;2023-12-20T07:43:56;9.7;70.7
78438;SHT31;67736;51.978;5.656;2023-12-20T07:46:26;9.7;70.6
78438;SHT31;67736;51.978;5.656;2023-12-20T07:48:56;9.7;70.5
78438;SHT31;67736;51.978;5.656;2023-12-20T07:51:25;9.7;70.5
78438;SHT31;67736;51.978;5.656;2023-12-20T07:53:56;9.7;70.5
78438;SHT31;67736;51.978;5.656;2023-12-20T07:56:26;9.7;70.4
78438;SHT31;67736;51.978;5.656;2023-12-20T07:58:55;9.7;70.2
78438;SHT31;67736;51.978;5.656;2023-12-20T08:01:27;9.7;70.4
78438;SHT31;67736;51.978;5.656;2023-12-20T08:03:56;9.7;70.2
78438;SHT31;67736;51.978;5.656;2023-12-20T08:06:26;9.8;70.1
78438;SHT31;67736;51.978;5.656;2023-12-20T08:08:56;9.8;70.3
78438;SHT31;67736;51.978;5.656;2023-12-20T08:11:27;9.8;70.2
78438;SHT31;67736;51.978;5.656;2023-12-20T08:13:57;9.8;69.9
78438;SHT31;67736;51.978;5.656;2023-12-20T08:16:27;9.8;69.9
78438;SHT31;67736;51.978;5.656;2023-12-20T08:18:57;9.8;70.1
78438;SHT31;67736;51.978;5.656;2023-12-20T08:21:26;9.8;70.4
78438;SHT31;67736;51.978;5.656;2023-12-20T08:23:56;9.8;70.2
78438;SHT31;67736;51.978;5.656;2023-12-20T08:26:28;9.9;70.2
78438;SHT31;67736;51.978;5.656;2023-12-20T08:28:59;9.9;70.2
78438;SHT31;67736;51.978;5.656;2023-12-20T08:31:29;9.9;70.4
78438;SHT31;67736;51.978;5.656;2023-12-20T08:33:58;9.9;70.1
78438;SHT31;67736;51.978;5.656;2023-12-20T08:36:30;9.9;70.2
78438;SHT31;67736;51.978;5.656;2023-12-20T08:39:01;10.0;70.1
78438;SHT31;67736;51.978;5.656;2023-12-20T08:41:34;10.0;69.7
78438;SHT31;67736;51.978;5.656;2023-12-20T08:44:04;10.0;69.9
78438;SHT31;67736;51.978;5.656;2023-12-20T08:46:33;10.0;70.0
78438;SHT31;67736;51.978;5.656;2023-12-20T08:49:03;10.0;69.9
78438;SHT31;67736;51.978;5.656;2023-12-20T08:51:32;10.0;70.1
78438;SHT31;67736;51.978;5.656;2023-12-20T08:54:02;10.0;69.8
78438;SHT31;67736;51.978;5.656;2023-12-20T08:56:35;10.0;70.1
78438;SHT31;67736;51.978;5.656;2023-12-20T08:59:04;10.0;70.0
78438;SHT31;67736;51.978;5.656;2023-12-20T09:01:34;10.0;70.2
78438;SHT31;67736;51.978;5.656;2023-12-20T09:04:04;10.0;70.3
78438;SHT31;67736;51.978;5.656;2023-12-20T09:06:33;10.1;70.1
78438;SHT31;67736;51.978;5.656;2023-12-20T09:09:03;10.1;70.5
78438;SHT31;67736;51.978;5.656;2023-12-20T09:11:33;10.1;70.4
78438;SHT31;67736;51.978;5.656;2023-12-20T09:14:03;10.1;70.9
78438;SHT31;67736;51.978;5.656;2023-12-20T09:16:32;10.1;71.0
78438;SHT31;67736;51.978;5.656;2023-12-20T09:19:02;10.1;71.0
78438;SHT31;67736;51.978;5.656;2023-12-20T09:21:32;10.1;71.1
78438;SHT31;67736;51.978;5.656;2023-12-20T09:24:01;10.1;71.4
78438;SHT31;67736;51.978;5.656;2023-12-20T09:26:31;10.0;71.8
78438;SHT31;67736;51.978;5.656;2023-12-20T09:29:00;10.0;72.0
78438;SHT31;67736;51.978;5.656;2023-12-20T09:31:30;10.0;71.8
78438;SHT31;67736;51.978;5.656;2023-12-20T09:33:59;10.0;71.9
78438;SHT31;67736;51.978;5.656;2023-12-20T09:36:30;10.0;72.1
78438;SHT31;67736;51.978;5.656;2023-12-20T09:39:03;10.0;71.9
78438;SHT31;67736;51.978;5.656;2023-12-20T09:41:37;10.0;72.3
78438;SHT31;67736;51.978;5.656;2023-12-20T09:44:14;10.0;72.3
78438;SHT31;67736;51.978;5.656;2023-12-20T09:46:49;10.0;72.2
78438;SHT31;67736;51.978;5.656;2023-12-20T09:49:20;10.0;72.3
78438;SHT31;67736;51.978;5.656;2023-12-20T09:51:51;10.0;72.4
78438;SHT31;67736;51.978;5.656;2023-12-20T09:54:21;10.0;72.6
78438;SHT31;67736;51.978;5.656;2023-12-20T09:56:51;10.0;72.3
78438;SHT31;67736;51.978;5.656;2023-12-20T09:59:20;10.0;72.4
78438;SHT31;67736;51.978;5.656;2023-12-20T10:01:52;10.0;72.5
78438;SHT31;67736;51.978;5.656;2023-12-20T10:04:25;10.0;72.4
78438;SHT31;67736;51.978;5.656;2023-12-20T10:06:54;10.0;72.5
78438;SHT31;67736;51.978;5.656;2023-12-20T10:09:24;10.0;72.2
78438;SHT31;67736;51.978;5.656;2023-12-20T10:11:56;10.0;72.5
78438;SHT31;67736;51.978;5.656;2023-12-20T10:14:26;10.0;72.3
78438;SHT31;67736;51.978;5.656;2023-12-20T10:17:04;10.0;72.1
78438;SHT31;67736;51.978;5.656;2023-12-20T10:19:34;10.1;72.2
78438;SHT31;67736;51.978;5.656;2023-12-20T10:22:04;10.1;72.5
78438;SHT31;67736;51.978;5.656;2023-12-20T10:24:34;10.1;72.5
78438;SHT31;67736;51.978;5.656;2023-12-20T10:27:05;10.1;72.6
78438;SHT31;67736;51.978;5.656;2023-12-20T10:29:35;10.1;72.6
78438;SHT31;67736;51.978;5.656;2023-12-20T10:32:25;10.1;72.8
78438;SHT31;67736;51.978;5.656;2023-12-20T10:34:55;10.1;72.6
78438;SHT31;67736;51.978;5.656;2023-12-20T10:37:26;10.2;72.2
78438;SHT31;67736;51.978;5.656;2023-12-20T10:40:01;10.2;72.6
78438;SHT31;67736;51.978;5.656;2023-12-20T10:42:34;10.2;72.2
78438;SHT31;67736;51.978;5.656;2023-12-20T10:45:07;10.3;72.1
78438;SHT31;67736;51.978;5.656;2023-12-20T10:47:39;10.3;72.4
78438;SHT31;67736;51.978;5.656;2023-12-20T10:50:09;10.3;72.1
78438;SHT31;67736;51.978;5.656;2023-12-20T10:52:40;10.4;71.9
78438;SHT31;67736;51.978;5.656;2023-12-20T10:55:10;10.4;71.9
78438;SHT31;67736;51.978;5.656;2023-12-20T10:57:43;10.4;71.6
78438;SHT31;67736;51.978;5.656;2023-12-20T11:00:19;10.4;71.5
78438;SHT31;67736;51.978;5.656;2023-12-20T11:02:49;10.4;71.5
78438;SHT31;67736;51.978;5.656;2023-12-20T11:05:31;10.5;71.3
78438;SHT31;67736;51.978;5.656;2023-12-20T11:08:11;10.5;71.0
78438;SHT31;67736;51.978;5.656;2023-12-20T11:10:51;10.5;70.9
78438;SHT31;67736;51.978;5.656;2023-12-20T11:13:32;10.6;71.0
78438;SHT31;67736;51.978;5.656;2023-12-20T11:16:04;10.6;70.7
78438;SHT31;67736;51.978;5.656;2023-12-20T11:18:35;10.6;70.9
78438;SHT31;67736;51.978;5.656;2023-12-20T11:21:06;10.6;71.0
78438;SHT31;67736;51.978;5.656;2023-12-20T11:23:35;10.7;70.7
78438;SHT31;67736;51.978;5.656;2023-12-20T11:26:07;10.7;70.5
78438;SHT31;67736;51.978;5.656;2023-12-20T11:28:36;10.7;70.0
78438;SHT31;67736;51.978;5.656;2023-12-20T11:31:06;10.8;70.1
78438;SHT31;67736;51.978;5.656;2023-12-20T11:33:38;10.8;69.8
78438;SHT31;67736;51.978;5.656;2023-12-20T11:36:15;10.8;69.3
78438;SHT31;67736;51.978;5.656;2023-12-20T11:38:56;10.9;69.3
78438;SHT31;67736;51.978;5.656;2023-12-20T11:41:27;10.9;69.1
78438;SHT31;67736;51.978;5.656;2023-12-20T11:43:58;10.9;69.3
78438;SHT31;67736;51.978;5.656;2023-12-20T11:46:28;10.9;68.7
78438;SHT31;67736;51.978;5.656;2023-12-20T11:49:00;11.0;67.9
78438;SHT31;67736;51.978;5.656;2023-12-20T11:51:30;11.0;68.0
78438;SHT31;67736;51.978;5.656;2023-12-20T11:53:59;11.0;67.7
78438;SHT31;67736;51.978;5.656;2023-12-20T11:56:29;11.1;67.3
78438;SHT31;67736;51.978;5.656;2023-12-20T11:58:59;11.1;67.3
78438;SHT31;67736;51.978;5.656;2023-12-20T12:01:29;11.1;67.3
78438;SHT31;67736;51.978;5.656;2023-12-20T12:04:04;11.1;67.6
78438;SHT31;67736;51.978;5.656;2023-12-20T12:06:34;11.2;67.3
78438;SHT31;67736;51.978;5.656;2023-12-20T12:09:03;11.2;67.5
78438;SHT31;67736;51.978;5.656;2023-12-20T12:11:33;11.2;67.9
78438;SHT31;67736;51.978;5.656;2023-12-20T12:14:03;11.3;68.0
78438;SHT31;67736;51.978;5.656;2023-12-20T12:16:33;11.3;67.5
78438;SHT31;67736;51.978;5.656;2023-12-20T12:19:03;11.3;67.5
78438;SHT31;67736;51.978;5.656;2023-12-20T12:21:32;11.4;68.0
78438;SHT31;67736;51.978;5.656;2023-12-20T12:24:10;11.4;67.7
78438;SHT31;67736;51.978;5.656;2023-12-20T12:26:41;11.4;67.9
78438;SHT31;67736;51.978;5.656;2023-12-20T12:29:11;11.4;67.9
78438;SHT31;67736;51.978;5.656;2023-12-20T12:31:41;11.5;67.6
78438;SHT31;67736;51.978;5.656;2023-12-20T12:34:11;11.5;67.3
78438;SHT31;67736;51.978;5.656;2023-12-20T12:36:41;11.5;67.1
78438;SHT31;67736;51.978;5.656;2023-12-20T12:39:12;11.5;67.3
78438;SHT31;67736;51.978;5.656;2023-12-20T12:41:42;11.5;67.7
78438;SHT31;67736;51.978;5.656;2023-12-20T12:44:12;11.5;67.8
78438;SHT31;67736;51.978;5.656;2023-12-20T12:46:42;11.5;67.8
78438;SHT31;67736;51.978;5.656;2023-12-20T12:49:11;11.5;67.9
78438;SHT31;67736;51.978;5.656;2023-12-20T12:51:41;11.5;68.0
78438;SHT31;67736;51.978;5.656;2023-12-20T12:54:11;11.5;67.9
78438;SHT31;67736;51.978;5.656;2023-12-20T12:56:44;11.5;67.7
78438;SHT31;67736;51.978;5.656;2023-12-20T12:59:15;11.5;67.8
78438;SHT31;67736;51.978;5.656;2023-12-20T13:01:44;11.5;67.7
78438;SHT31;67736;51.978;5.656;2023-12-20T13:04:14;11.5;67.5
78438;SHT31;67736;51.978;5.656;2023-12-20T13:06:43;11.5;67.4
78438;SHT31;67736;51.978;5.656;2023-12-20T13:09:14;11.5;67.5
78438;SHT31;67736;51.978;5.656;2023-12-20T13:11:44;11.5;67.4
78438;SHT31;67736;51.978;5.656;2023-12-20T13:14:13;11.5;67.3
78438;SHT31;67736;51.978;5.656;2023-12-20T13:16:44;11.5;67.2
78438;SHT31;67736;51.978;5.656;2023-12-20T13:19:14;11.5;67.4
78438;SHT31;67736;51.978;5.656;2023-12-20T13:21:43;11.5;67.6
78438;SHT31;67736;51.978;5.656;2023-12-20T13:24:13;11.5;67.6
78438;SHT31;67736;51.978;5.656;2023-12-20T13:26:42;11.6;67.4
78438;SHT31;67736;51.978;5.656;2023-12-20T13:29:12;11.6;66.6
78438;SHT31;67736;51.978;5.656;2023-12-20T13:31:41;11.6;66.9
78438;SHT31;67736;51.978;5.656;2023-12-20T13:34:11;11.6;66.7
78438;SHT31;67736;51.978;5.656;2023-12-20T13:36:41;11.6;66.8
78438;SHT31;67736;51.978;5.656;2023-12-20T13:39:13;11.6;66.8
78438;SHT31;67736;51.978;5.656;2023-12-20T13:41:42;11.6;66.7
78438;SHT31;67736;51.978;5.656;2023-12-20T13:44:12;11.6;66.6
78438;SHT31;67736;51.978;5.656;2023-12-20T13:46:42;11.5;66.5
78438;SHT31;67736;51.978;5.656;2023-12-20T13:49:12;11.5;66.8
78438;SHT31;67736;51.978;5.656;2023-12-20T13:51:42;11.5;66.9
78438;SHT31;67736;51.978;5.656;2023-12-20T13:54:11;11.5;67.0
78438;SHT31;67736;51.978;5.656;2023-12-20T13:56:41;11.5;67.0
78438;SHT31;67736;51.978;5.656;2023-12-20T13:59:11;11.5;66.5
78438;SHT31;67736;51.978;5.656;2023-12-20T14:01:41;11.5;66.3
78438;SHT31;67736;51.978;5.656;2023-12-20T14:04:10;11.5;66.4
78438;SHT31;67736;51.978;5.656;2023-12-20T14:06:40;11.5;66.3
78438;SHT31;67736;51.978;5.656;2023-12-20T14:09:10;11.5;66.2
78438;SHT31;67736;51.978;5.656;2023-12-20T14:11:40;11.5;66.1
78438;SHT31;67736;51.978;5.656;2023-12-20T14:14:10;11.5;66.2
78438;SHT31;67736;51.978;5.656;2023-12-20T14:16:39;11.5;66.2
78438;SHT31;67736;51.978;5.656;2023-12-20T14:19:12;11.5;66.0
78438;SHT31;67736;51.978;5.656;2023-12-20T14:21:41;11.5;66.4
78438;SHT31;67736;51.978;5.656;2023-12-20T14:24:13;11.5;66.4
78438;SHT31;67736;51.978;5.656;2023-12-20T14:26:43;11.6;66.0
78438;SHT31;67736;51.978;5.656;2023-12-20T14:29:13;11.6;66.2
78438;SHT31;67736;51.978;5.656;2023-12-20T14:31:42;11.6;66.4
78438;SHT31;67736;51.978;5.656;2023-12-20T14:34:12;11.6;66.2
78438;SHT31;67736;51.978;5.656;2023-12-20T14:36:42;11.6;66.6
78438;SHT31;67736;51.978;5.656;2023-12-20T14:39:11;11.6;66.6
78438;SHT31;67736;51.978;5.656;2023-12-20T14:41:42;11.6;66.5
78438;SHT31;67736;51.978;5.656;2023-12-20T14:44:12;11.6;66.7
78438;SHT31;67736;51.978;5.656;2023-12-20T14:46:41;11.6;66.6
78438;SHT31;67736;51.978;5.656;2023-12-20T14:49:11;11.6;66.7
78438;SHT31;67736;51.978;5.656;2023-12-20T14:51:43;11.6;66.8
78438;SHT31;67736;51.978;5.656;2023-12-20T14:54:15;11.6;66.7
78438;SHT31;67736;51.978;5.656;2023-12-20T14:56:44;11.6;66.7
78438;SHT31;67736;51.978;5.656;2023-12-20T14:59:14;11.6;66.5
78438;SHT31;67736;51.978;5.656;2023-12-20T15:01:44;11.6;66.7
78438;SHT31;67736;51.978;5.656;2023-12-20T15:04:13;11.6;66.7
78438;SHT31;67736;51.978;5.656;2023-12-20T15:06:43;11.6;67.0
78438;SHT31;67736;51.978;5.656;2023-12-20T15:09:12;11.6;66.6
78438;SHT31;67736;51.978;5.656;2023-12-20T15:11:42;11.6;66.8
78438;SHT31;67736;51.978;5.656;2023-12-20T15:14:13;11.6;66.9
78438;SHT31;67736;51.978;5.656;2023-12-20T15:16:46;11.6;66.8
78438;SHT31;67736;51.978;5.656;2023-12-20T15:19:16;11.6;66.9
78438;SHT31;67736;51.978;5.656;2023-12-20T15:21:46;11.6;67.1
78438;SHT31;67736;51.978;5.656;2023-12-20T15:24:17;11.6;67.3
78438;SHT31;67736;51.978;5.656;2023-12-20T15:26:52;11.6;67.4
78438;SHT31;67736;51.978;5.656;2023-12-20T15:29:23;11.6;67.5
78438;SHT31;67736;51.978;5.656;2023-12-20T15:31:52;11.6;67.3
78438;SHT31;67736;51.978;5.656;2023-12-20T15:34:24;11.6;67.3
78438;SHT31;67736;51.978;5.656;2023-12-20T15:36:53;11.6;67.3
78438;SHT31;67736;51.978;5.656;2023-12-20T15:39:23;11.6;67.5
78438;SHT31;67736;51.978;5.656;2023-12-20T15:41:52;11.6;67.9
78438;SHT31;67736;51.978;5.656;2023-12-20T15:44:22;11.6;68.4
78438;SHT31;67736;51.978;5.656;2023-12-20T15:46:52;11.6;68.6
78438;SHT31;67736;51.978;5.656;2023-12-20T15:49:22;11.5;68.8
78438;SHT31;67736;51.978;5.656;2023-12-20T15:51:51;11.5;69.0
78438;SHT31;67736;51.978;5.656;2023-12-20T15:54:21;11.5;69.2
78438;SHT31;67736;51.978;5.656;2023-12-20T15:56:50;11.5;69.5
78438;SHT31;67736;51.978;5.656;2023-12-20T15:59:20;11.4;69.3
78438;SHT31;67736;51.978;5.656;2023-12-20T16:01:49;11.4;69.4
78438;SHT31;67736;51.978;5.656;2023-12-20T16:04:19;11.4;69.9
78438;SHT31;67736;51.978;5.656;2023-12-20T16:06:48;11.4;70.1
78438;SHT31;67736;51.978;5.656;2023-12-20T16:09:18;11.3;70.3
78438;SHT31;67736;51.978;5.656;2023-12-20T16:11:47;11.3;70.8
78438;SHT31;67736;51.978;5.656;2023-12-20T16:14:17;11.3;70.9
78438;SHT31;67736;51.978;5.656;2023-12-20T16:16:47;11.3;70.9
78438;SHT31;67736;51.978;5.656;2023-12-20T16:19:17;11.2;71.2
78438;SHT31;67736;51.978;5.656;2023-12-20T16:21:48;11.2;71.3
78438;SHT31;67736;51.978;5.656;2023-12-20T16:24:18;11.2;71.3
78438;SHT31;67736;51.978;5.656;2023-12-20T16:26:48;11.2;71.5
78438;SHT31;67736;51.978;5.656;2023-12-20T16:29:17;11.2;71.7